sensor_id;sensor_type;location;lat;lon;timestamp;P1;durP1;ratioP1;P2;durP2;ratioP2
33780;SDS011;20097;50.832;19.100;2023-02-18T00:01:34;4.05;;;2.38;;
33780;SDS011;20097;50.832;19.100;2023-02-18T00:06:38;3.83;;;1.85;;
33780;SDS011;20097;50.832;19.100;2023-02-18T00:11:44;1.63;;;1.25;;
33780;SDS011;20097;50.832;19.100;2023-02-18T00:16:49;3.28;;;1.27;;
33780;SDS011;20097;50.832;19.100;2023-02-18T00:21:53;3.70;;;1.55;;
33780;SDS011;20097;50.832;19.100;2023-02-18T00:26:58;4.72;;;1.63;;
33780;SDS011;20097;50.832;19.100;2023-02-18T00:32:03;1.30;;;0.98;;
33780;SDS011;20097;50.832;19.100;2023-02-18T00:37:08;2.10;;;1.10;;
33780;SDS011;20097;50.832;19.100;2023-02-18T00:42:14;4.18;;;1.58;;
33780;SDS011;20097;50.832;19.100;2023-02-18T00:47:18;3.55;;;0.90;;
33780;SDS011;20097;50.832;19.100;2023-02-18T00:52:23;2.28;;;0.93;;
33780;SDS011;20097;50.832;19.100;2023-02-18T00:57:28;2.03;;;1.20;;
33780;SDS011;20097;50.832;19.100;2023-02-18T01:02:33;1.30;;;0.90;;
33780;SDS011;20097;50.832;19.100;2023-02-18T01:07:38;2.92;;;0.80;;
33780;SDS011;20097;50.832;19.100;2023-02-18T01:12:44;4.15;;;1.45;;
33780;SDS011;20097;50.832;19.100;2023-02-18T01:17:49;1.63;;;0.77;;
33780;SDS011;20097;50.832;19.100;2023-02-18T01:22:54;1.48;;;0.70;;
33780;SDS011;20097;50.832;19.100;2023-02-18T01:28:00;2.25;;;1.10;;
33780;SDS011;20097;50.832;19.100;2023-02-18T01:33:06;3.85;;;1.33;;
33780;SDS011;20097;50.832;19.100;2023-02-18T01:38:12;2.20;;;0.73;;
33780;SDS011;20097;50.832;19.100;2023-02-18T01:43:20;1.13;;;0.70;;
33780;SDS011;20097;50.832;19.100;2023-02-18T01:48:26;2.90;;;0.80;;
33780;SDS011;20097;50.832;19.100;2023-02-18T01:53:36;4.45;;;1.00;;
33780;SDS011;20097;50.832;19.100;2023-02-18T01:58:49;1.35;;;0.98;;
33780;SDS011;20097;50.832;19.100;2023-02-18T02:03:57;2.35;;;0.70;;
33780;SDS011;20097;50.832;19.100;2023-02-18T02:09:03;3.50;;;0.82;;
33780;SDS011;20097;50.832;19.100;2023-02-18T02:14:18;4.28;;;0.90;;
33780;SDS011;20097;50.832;19.100;2023-02-18T02:19:50;2.30;;;1.02;;
33780;SDS011;20097;50.832;19.100;2023-02-18T02:25:36;3.13;;;1.10;;
33780;SDS011;20097;50.832;19.100;2023-02-18T02:37:21;3.22;;;0.80;;
33780;SDS011;20097;50.832;19.100;2023-02-18T02:42:35;1.20;;;0.77;;
33780;SDS011;20097;50.832;19.100;2023-02-18T02:47:53;3.20;;;1.20;;
33780;SDS011;20097;50.832;19.100;2023-02-18T02:53:10;3.33;;;0.85;;
33780;SDS011;20097;50.832;19.100;2023-02-18T02:58:29;3.15;;;0.90;;
33780;SDS011;20097;50.832;19.100;2023-02-18T03:09:15;1.42;;;0.73;;
33780;SDS011;20097;50.832;19.100;2023-02-18T03:14:27;2.20;;;0.90;;
33780;SDS011;20097;50.832;19.100;2023-02-18T03:19:37;4.40;;;0.93;;
33780;SDS011;20097;50.832;19.100;2023-02-18T03:24:49;1.80;;;0.88;;
33780;SDS011;20097;50.832;19.100;2023-02-18T03:29:58;1.70;;;0.60;;
33780;SDS011;20097;50.832;19.100;2023-02-18T03:35:08;1.30;;;0.65;;
33780;SDS011;20097;50.832;19.100;2023-02-18T03:40:17;5.97;;;1.00;;
33780;SDS011;20097;50.832;19.100;2023-02-18T03:45:22;2.97;;;0.93;;
33780;SDS011;20097;50.832;19.100;2023-02-18T03:50:27;3.22;;;0.80;;
33780;SDS011;20097;50.832;19.100;2023-02-18T03:55:33;1.23;;;0.77;;
33780;SDS011;20097;50.832;19.100;2023-02-18T04:00:37;4.05;;;0.98;;
33780;SDS011;20097;50.832;19.100;2023-02-18T04:05:41;3.88;;;1.00;;
33780;SDS011;20097;50.832;19.100;2023-02-18T04:10:48;3.80;;;0.80;;
33780;SDS011;20097;50.832;19.100;2023-02-18T04:15:52;3.78;;;0.88;;
33780;SDS011;20097;50.832;19.100;2023-02-18T04:20:57;3.40;;;0.65;;
33780;SDS011;20097;50.832;19.100;2023-02-18T04:26:03;3.47;;;1.30;;
33780;SDS011;20097;50.832;19.100;2023-02-18T04:31:08;1.35;;;0.82;;
33780;SDS011;20097;50.832;19.100;2023-02-18T04:41:18;3.00;;;0.95;;
33780;SDS011;20097;50.832;19.100;2023-02-18T04:46:22;4.90;;;1.55;;
33780;SDS011;20097;50.832;19.100;2023-02-18T04:51:27;4.65;;;1.35;;
33780;SDS011;20097;50.832;19.100;2023-02-18T04:56:33;5.07;;;1.40;;
33780;SDS011;20097;50.832;19.100;2023-02-18T05:01:37;3.17;;;1.08;;
33780;SDS011;20097;50.832;19.100;2023-02-18T05:06:42;1.58;;;0.70;;
33780;SDS011;20097;50.832;19.100;2023-02-18T05:11:48;3.35;;;0.68;;
33780;SDS011;20097;50.832;19.100;2023-02-18T05:16:52;3.28;;;1.00;;
33780;SDS011;20097;50.832;19.100;2023-02-18T05:21:57;3.25;;;1.00;;
33780;SDS011;20097;50.832;19.100;2023-02-18T05:27:02;1.52;;;0.90;;
33780;SDS011;20097;50.832;19.100;2023-02-18T05:32:07;3.40;;;0.70;;
33780;SDS011;20097;50.832;19.100;2023-02-18T05:37:11;2.05;;;1.15;;
33780;SDS011;20097;50.832;19.100;2023-02-18T05:42:17;4.15;;;1.02;;
33780;SDS011;20097;50.832;19.100;2023-02-18T05:47:22;1.90;;;1.05;;
33780;SDS011;20097;50.832;19.100;2023-02-18T05:52:26;1.73;;;0.90;;
33780;SDS011;20097;50.832;19.100;2023-02-18T05:57:32;1.95;;;1.00;;
33780;SDS011;20097;50.832;19.100;2023-02-18T06:02:37;3.00;;;0.75;;
33780;SDS011;20097;50.832;19.100;2023-02-18T06:07:41;6.28;;;1.35;;
33780;SDS011;20097;50.832;19.100;2023-02-18T06:22:55;2.92;;;1.10;;
33780;SDS011;20097;50.832;19.100;2023-02-18T06:28:01;4.50;;;1.33;;
33780;SDS011;20097;50.832;19.100;2023-02-18T06:33:06;3.55;;;1.10;;
33780;SDS011;20097;50.832;19.100;2023-02-18T06:38:10;3.28;;;0.85;;
33780;SDS011;20097;50.832;19.100;2023-02-18T06:43:16;1.45;;;0.80;;
33780;SDS011;20097;50.832;19.100;2023-02-18T06:48:21;1.60;;;0.80;;
33780;SDS011;20097;50.832;19.100;2023-02-18T06:53:26;3.05;;;1.20;;
33780;SDS011;20097;50.832;19.100;2023-02-18T06:58:32;5.68;;;1.25;;
33780;SDS011;20097;50.832;19.100;2023-02-18T07:03:36;3.95;;;1.02;;
33780;SDS011;20097;50.832;19.100;2023-02-18T07:08:41;3.97;;;1.33;;
33780;SDS011;20097;50.832;19.100;2023-02-18T07:13:47;6.28;;;1.23;;
33780;SDS011;20097;50.832;19.100;2023-02-18T07:18:52;2.78;;;1.23;;
33780;SDS011;20097;50.832;19.100;2023-02-18T07:23:56;4.40;;;1.52;;
33780;SDS011;20097;50.832;19.100;2023-02-18T07:29:02;8.75;;;1.55;;
33780;SDS011;20097;50.832;19.100;2023-02-18T07:34:07;2.97;;;1.30;;
33780;SDS011;20097;50.832;19.100;2023-02-18T07:39:11;6.40;;;1.73;;
33780;SDS011;20097;50.832;19.100;2023-02-18T07:44:17;4.00;;;1.67;;
33780;SDS011;20097;50.832;19.100;2023-02-18T07:49:21;4.05;;;1.42;;
33780;SDS011;20097;50.832;19.100;2023-02-18T07:54:26;7.18;;;2.45;;
33780;SDS011;20097;50.832;19.100;2023-02-18T08:04:36;4.38;;;1.42;;
33780;SDS011;20097;50.832;19.100;2023-02-18T08:09:40;2.45;;;1.20;;
33780;SDS011;20097;50.832;19.100;2023-02-18T08:14:47;5.28;;;1.85;;
33780;SDS011;20097;50.832;19.100;2023-02-18T08:19:52;2.95;;;1.70;;
33780;SDS011;20097;50.832;19.100;2023-02-18T08:24:56;3.57;;;1.77;;
33780;SDS011;20097;50.832;19.100;2023-02-18T08:30:03;3.33;;;1.40;;
33780;SDS011;20097;50.832;19.100;2023-02-18T08:35:09;5.07;;;1.92;;
33780;SDS011;20097;50.832;19.100;2023-02-18T08:40:14;4.90;;;1.65;;
33780;SDS011;20097;50.832;19.100;2023-02-18T08:45:21;8.98;;;1.85;;
33780;SDS011;20097;50.832;19.100;2023-02-18T08:50:26;3.95;;;2.15;;
33780;SDS011;20097;50.832;19.100;2023-02-18T08:55:31;6.20;;;1.73;;
33780;SDS011;20097;50.832;19.100;2023-02-18T09:00:38;3.53;;;1.33;;
33780;SDS011;20097;50.832;19.100;2023-02-18T09:05:44;2.95;;;1.42;;
33780;SDS011;20097;50.832;19.100;2023-02-18T09:10:49;2.22;;;0.95;;
33780;SDS011;20097;50.832;19.100;2023-02-18T09:16:00;2.20;;;1.48;;
33780;SDS011;20097;50.832;19.100;2023-02-18T09:21:08;2.13;;;1.30;;
33780;SDS011;20097;50.832;19.100;2023-02-18T09:26:16;3.10;;;1.05;;
33780;SDS011;20097;50.832;19.100;2023-02-18T09:31:26;4.05;;;1.30;;
33780;SDS011;20097;50.832;19.100;2023-02-18T09:36:31;5.35;;;1.40;;
33780;SDS011;20097;50.832;19.100;2023-02-18T09:41:37;4.93;;;1.75;;
33780;SDS011;20097;50.832;19.100;2023-02-18T09:46:47;3.33;;;1.65;;
33780;SDS011;20097;50.832;19.100;2023-02-18T09:51:59;3.42;;;1.45;;
33780;SDS011;20097;50.832;19.100;2023-02-18T09:57:14;4.53;;;1.67;;
33780;SDS011;20097;50.832;19.100;2023-02-18T10:02:28;3.72;;;1.60;;
33780;SDS011;20097;50.832;19.100;2023-02-18T10:07:32;4.35;;;1.67;;
33780;SDS011;20097;50.832;19.100;2023-02-18T10:12:39;3.15;;;1.20;;
33780;SDS011;20097;50.832;19.100;2023-02-18T10:17:46;3.15;;;1.67;;
33780;SDS011;20097;50.832;19.100;2023-02-18T10:22:52;3.20;;;1.40;;
33780;SDS011;20097;50.832;19.100;2023-02-18T10:27:59;5.00;;;1.65;;
33780;SDS011;20097;50.832;19.100;2023-02-18T10:33:10;2.53;;;1.55;;
33780;SDS011;20097;50.832;19.100;2023-02-18T10:38:32;4.05;;;1.42;;
33780;SDS011;20097;50.832;19.100;2023-02-18T10:43:50;2.88;;;1.30;;
33780;SDS011;20097;50.832;19.100;2023-02-18T10:49:08;2.58;;;1.50;;
33780;SDS011;20097;50.832;19.100;2023-02-18T10:54:46;2.08;;;0.88;;
33780;SDS011;20097;50.832;19.100;2023-02-18T10:59:55;3.08;;;1.30;;
33780;SDS011;20097;50.832;19.100;2023-02-18T11:05:11;3.42;;;1.40;;
33780;SDS011;20097;50.832;19.100;2023-02-18T11:10:25;2.28;;;1.08;;
33780;SDS011;20097;50.832;19.100;2023-02-18T11:15:35;1.70;;;0.93;;
33780;SDS011;20097;50.832;19.100;2023-02-18T11:20:41;3.50;;;1.40;;
33780;SDS011;20097;50.832;19.100;2023-02-18T11:26:00;3.17;;;1.13;;
33780;SDS011;20097;50.832;19.100;2023-02-18T11:31:07;3.58;;;2.55;;
33780;SDS011;20097;50.832;19.100;2023-02-18T11:36:20;1.92;;;1.42;;
33780;SDS011;20097;50.832;19.100;2023-02-18T11:41:29;2.15;;;1.30;;
33780;SDS011;20097;50.832;19.100;2023-02-18T11:46:37;6.72;;;2.55;;
33780;SDS011;20097;50.832;19.100;2023-02-18T11:52:13;4.07;;;1.90;;
33780;SDS011;20097;50.832;19.100;2023-02-18T11:57:22;4.72;;;2.33;;
33780;SDS011;20097;50.832;19.100;2023-02-18T12:02:29;5.32;;;2.42;;
33780;SDS011;20097;50.832;19.100;2023-02-18T12:07:42;5.85;;;2.97;;
33780;SDS011;20097;50.832;19.100;2023-02-18T12:12:52;8.98;;;4.13;;
33780;SDS011;20097;50.832;19.100;2023-02-18T12:24:02;6.63;;;2.90;;
33780;SDS011;20097;50.832;19.100;2023-02-18T12:29:43;8.45;;;4.00;;
33780;SDS011;20097;50.832;19.100;2023-02-18T12:35:09;7.78;;;3.97;;
33780;SDS011;20097;50.832;19.100;2023-02-18T12:40:51;9.10;;;4.30;;
33780;SDS011;20097;50.832;19.100;2023-02-18T12:46:19;7.85;;;2.78;;
33780;SDS011;20097;50.832;19.100;2023-02-18T12:51:36;5.15;;;2.35;;
33780;SDS011;20097;50.832;19.100;2023-02-18T12:56:56;6.00;;;2.92;;
33780;SDS011;20097;50.832;19.100;2023-02-18T13:02:23;8.20;;;3.50;;
33780;SDS011;20097;50.832;19.100;2023-02-18T13:07:55;9.27;;;3.88;;
33780;SDS011;20097;50.832;19.100;2023-02-18T13:13:23;10.57;;;4.55;;
33780;SDS011;20097;50.832;19.100;2023-02-18T13:18:29;7.70;;;3.45;;
33780;SDS011;20097;50.832;19.100;2023-02-18T13:23:38;8.10;;;4.43;;
33780;SDS011;20097;50.832;19.100;2023-02-18T13:28:57;9.65;;;3.70;;
33780;SDS011;20097;50.832;19.100;2023-02-18T13:34:23;10.23;;;4.40;;
33780;SDS011;20097;50.832;19.100;2023-02-18T13:39:34;10.27;;;4.15;;
33780;SDS011;20097;50.832;19.100;2023-02-18T13:44:41;15.20;;;5.05;;
33780;SDS011;20097;50.832;19.100;2023-02-18T13:50:39;11.98;;;6.90;;
33780;SDS011;20097;50.832;19.100;2023-02-18T13:55:49;11.23;;;6.25;;
33780;SDS011;20097;50.832;19.100;2023-02-18T14:01:01;12.32;;;6.88;;
33780;SDS011;20097;50.832;19.100;2023-02-18T14:06:14;14.68;;;6.05;;
33780;SDS011;20097;50.832;19.100;2023-02-18T14:11:24;9.63;;;6.78;;
33780;SDS011;20097;50.832;19.100;2023-02-18T14:22:42;12.82;;;5.97;;
33780;SDS011;20097;50.832;19.100;2023-02-18T14:27:49;14.90;;;6.88;;
33780;SDS011;20097;50.832;19.100;2023-02-18T14:32:57;11.70;;;6.38;;
33780;SDS011;20097;50.832;19.100;2023-02-18T14:38:10;10.60;;;5.63;;
33780;SDS011;20097;50.832;19.100;2023-02-18T14:43:40;8.73;;;4.95;;
33780;SDS011;20097;50.832;19.100;2023-02-18T14:54:45;13.48;;;6.68;;
33780;SDS011;20097;50.832;19.100;2023-02-18T14:59:55;12.55;;;6.43;;
33780;SDS011;20097;50.832;19.100;2023-02-18T15:05:11;11.52;;;7.47;;
33780;SDS011;20097;50.832;19.100;2023-02-18T15:10:19;15.45;;;7.25;;
33780;SDS011;20097;50.832;19.100;2023-02-18T15:15:23;11.25;;;6.88;;
33780;SDS011;20097;50.832;19.100;2023-02-18T15:20:30;14.63;;;7.32;;
33780;SDS011;20097;50.832;19.100;2023-02-18T15:25:38;14.77;;;8.02;;
33780;SDS011;20097;50.832;19.100;2023-02-18T15:30:43;15.97;;;9.33;;
33780;SDS011;20097;50.832;19.100;2023-02-18T15:35:49;20.13;;;9.10;;
33780;SDS011;20097;50.832;19.100;2023-02-18T15:40:54;14.07;;;7.53;;
33780;SDS011;20097;50.832;19.100;2023-02-18T15:45:59;17.02;;;9.77;;
33780;SDS011;20097;50.832;19.100;2023-02-18T15:51:09;13.10;;;8.27;;
33780;SDS011;20097;50.832;19.100;2023-02-18T15:56:20;14.00;;;8.50;;
33780;SDS011;20097;50.832;19.100;2023-02-18T16:01:32;16.88;;;9.52;;
33780;SDS011;20097;50.832;19.100;2023-02-18T16:11:48;17.23;;;10.45;;
33780;SDS011;20097;50.832;19.100;2023-02-18T16:16:58;17.10;;;9.32;;
33780;SDS011;20097;50.832;19.100;2023-02-18T16:22:26;15.60;;;8.88;;
33780;SDS011;20097;50.832;19.100;2023-02-18T16:27:37;18.48;;;9.50;;
33780;SDS011;20097;50.832;19.100;2023-02-18T16:32:53;17.70;;;10.13;;
33780;SDS011;20097;50.832;19.100;2023-02-18T16:38:00;14.35;;;10.02;;
33780;SDS011;20097;50.832;19.100;2023-02-18T16:43:08;15.60;;;9.70;;
33780;SDS011;20097;50.832;19.100;2023-02-18T16:48:17;10.73;;;7.00;;
33780;SDS011;20097;50.832;19.100;2023-02-18T16:53:30;13.38;;;7.82;;
33780;SDS011;20097;50.832;19.100;2023-02-18T16:58:35;9.90;;;6.40;;
33780;SDS011;20097;50.832;19.100;2023-02-18T17:03:39;10.32;;;6.80;;
33780;SDS011;20097;50.832;19.100;2023-02-18T17:08:45;9.23;;;5.82;;
33780;SDS011;20097;50.832;19.100;2023-02-18T17:13:51;12.65;;;6.45;;
33780;SDS011;20097;50.832;19.100;2023-02-18T17:18:59;13.13;;;7.88;;
33780;SDS011;20097;50.832;19.100;2023-02-18T17:24:05;10.73;;;6.50;;
33780;SDS011;20097;50.832;19.100;2023-02-18T17:29:13;8.07;;;5.50;;
33780;SDS011;20097;50.832;19.100;2023-02-18T17:34:19;9.05;;;5.88;;
33780;SDS011;20097;50.832;19.100;2023-02-18T17:39:30;11.75;;;5.55;;
33780;SDS011;20097;50.832;19.100;2023-02-18T17:44:35;10.23;;;5.70;;
33780;SDS011;20097;50.832;19.100;2023-02-18T17:49:40;7.78;;;5.07;;
33780;SDS011;20097;50.832;19.100;2023-02-18T17:54:46;10.10;;;5.05;;
33780;SDS011;20097;50.832;19.100;2023-02-18T17:59:51;6.93;;;4.97;;
33780;SDS011;20097;50.832;19.100;2023-02-18T18:04:58;8.30;;;5.78;;
33780;SDS011;20097;50.832;19.100;2023-02-18T18:10:04;6.37;;;4.90;;
33780;SDS011;20097;50.832;19.100;2023-02-18T18:15:16;6.75;;;4.47;;
33780;SDS011;20097;50.832;19.100;2023-02-18T18:25:36;5.13;;;3.58;;
33780;SDS011;20097;50.832;19.100;2023-02-18T18:30:43;5.97;;;3.90;;
33780;SDS011;20097;50.832;19.100;2023-02-18T18:35:50;4.93;;;3.70;;
33780;SDS011;20097;50.832;19.100;2023-02-18T18:40:58;4.30;;;3.30;;
33780;SDS011;20097;50.832;19.100;2023-02-18T18:46:02;4.35;;;3.25;;
33780;SDS011;20097;50.832;19.100;2023-02-18T18:56:18;7.15;;;4.55;;
33780;SDS011;20097;50.832;19.100;2023-02-18T19:01:23;8.23;;;6.05;;
33780;SDS011;20097;50.832;19.100;2023-02-18T19:06:29;5.97;;;4.88;;
33780;SDS011;20097;50.832;19.100;2023-02-18T19:11:34;6.10;;;3.70;;
33780;SDS011;20097;50.832;19.100;2023-02-18T19:16:39;3.83;;;2.38;;
33780;SDS011;20097;50.832;19.100;2023-02-18T19:21:45;10.05;;;7.88;;
33780;SDS011;20097;50.832;19.100;2023-02-18T19:26:51;4.60;;;3.42;;
33780;SDS011;20097;50.832;19.100;2023-02-18T19:31:55;10.52;;;7.70;;
33780;SDS011;20097;50.832;19.100;2023-02-18T19:37:00;6.50;;;5.53;;
33780;SDS011;20097;50.832;19.100;2023-02-18T19:42:06;4.68;;;2.60;;
33780;SDS011;20097;50.832;19.100;2023-02-18T19:47:10;4.43;;;3.20;;
33780;SDS011;20097;50.832;19.100;2023-02-18T19:52:14;6.30;;;4.07;;
33780;SDS011;20097;50.832;19.100;2023-02-18T19:57:21;6.50;;;3.10;;
33780;SDS011;20097;50.832;19.100;2023-02-18T20:02:26;5.72;;;2.90;;
33780;SDS011;20097;50.832;19.100;2023-02-18T20:07:32;3.70;;;2.00;;
33780;SDS011;20097;50.832;19.100;2023-02-18T20:12:39;3.58;;;1.70;;
33780;SDS011;20097;50.832;19.100;2023-02-18T20:17:43;3.58;;;1.92;;
33780;SDS011;20097;50.832;19.100;2023-02-18T20:22:48;2.13;;;1.50;;
33780;SDS011;20097;50.832;19.100;2023-02-18T20:27:53;3.50;;;1.92;;
33780;SDS011;20097;50.832;19.100;2023-02-18T20:33:03;3.05;;;1.63;;
33780;SDS011;20097;50.832;19.100;2023-02-18T20:38:07;3.28;;;1.73;;
33780;SDS011;20097;50.832;19.100;2023-02-18T20:43:14;4.63;;;2.20;;
33780;SDS011;20097;50.832;19.100;2023-02-18T20:48:18;3.90;;;2.42;;
33780;SDS011;20097;50.832;19.100;2023-02-18T20:53:22;4.50;;;2.67;;
33780;SDS011;20097;50.832;19.100;2023-02-18T20:58:28;4.50;;;2.88;;
33780;SDS011;20097;50.832;19.100;2023-02-18T21:03:34;4.95;;;3.08;;
33780;SDS011;20097;50.832;19.100;2023-02-18T21:08:39;5.68;;;3.60;;
33780;SDS011;20097;50.832;19.100;2023-02-18T21:13:45;5.93;;;3.10;;
33780;SDS011;20097;50.832;19.100;2023-02-18T21:18:51;6.22;;;3.58;;
33780;SDS011;20097;50.832;19.100;2023-02-18T21:23:55;5.13;;;2.80;;
33780;SDS011;20097;50.832;19.100;2023-02-18T21:29:03;5.28;;;2.67;;
33780;SDS011;20097;50.832;19.100;2023-02-18T21:34:10;7.20;;;3.20;;
33780;SDS011;20097;50.832;19.100;2023-02-18T21:39:16;5.38;;;4.03;;
33780;SDS011;20097;50.832;19.100;2023-02-18T21:44:22;7.80;;;4.30;;
33780;SDS011;20097;50.832;19.100;2023-02-18T21:49:42;6.22;;;4.35;;
33780;SDS011;20097;50.832;19.100;2023-02-18T21:54:47;6.20;;;4.05;;
33780;SDS011;20097;50.832;19.100;2023-02-18T21:59:56;7.15;;;4.22;;
33780;SDS011;20097;50.832;19.100;2023-02-18T22:05:13;8.13;;;5.43;;
33780;SDS011;20097;50.832;19.100;2023-02-18T22:10:18;10.20;;;5.72;;
33780;SDS011;20097;50.832;19.100;2023-02-18T22:15:23;8.70;;;6.35;;
33780;SDS011;20097;50.832;19.100;2023-02-18T22:20:28;10.00;;;7.78;;
33780;SDS011;20097;50.832;19.100;2023-02-18T22:25:34;11.05;;;6.75;;
33780;SDS011;20097;50.832;19.100;2023-02-18T22:30:39;10.13;;;6.63;;
33780;SDS011;20097;50.832;19.100;2023-02-18T22:35:44;13.32;;;7.07;;
33780;SDS011;20097;50.832;19.100;2023-02-18T22:40:48;11.00;;;6.72;;
33780;SDS011;20097;50.832;19.100;2023-02-18T22:45:55;10.82;;;6.28;;
33780;SDS011;20097;50.832;19.100;2023-02-18T22:51:04;13.45;;;5.95;;
33780;SDS011;20097;50.832;19.100;2023-02-18T22:56:11;9.63;;;6.07;;
33780;SDS011;20097;50.832;19.100;2023-02-18T23:01:19;9.98;;;5.55;;
33780;SDS011;20097;50.832;19.100;2023-02-18T23:06:25;10.77;;;6.68;;
33780;SDS011;20097;50.832;19.100;2023-02-18T23:16:36;11.30;;;6.47;;
33780;SDS011;20097;50.832;19.100;2023-02-18T23:21:54;8.05;;;5.75;;
33780;SDS011;20097;50.832;19.100;2023-02-18T23:26:59;9.10;;;6.13;;
33780;SDS011;20097;50.832;19.100;2023-02-18T23:32:04;10.73;;;6.07;;
33780;SDS011;20097;50.832;19.100;2023-02-18T23:37:09;8.65;;;5.85;;
33780;SDS011;20097;50.832;19.100;2023-02-18T23:42:14;8.57;;;4.60;;
33780;SDS011;20097;50.832;19.100;2023-02-18T23:47:20;9.18;;;5.40;;
33780;SDS011;20097;50.832;19.100;2023-02-18T23:52:25;9.45;;;5.15;;
33780;SDS011;20097;50.832;19.100;2023-02-18T23:57:29;9.55;;;5.30;;
